Robles Del Rio, CA

7:46 PM PST on February 24, 2017 (GMT -0800)
Santa Lucia Preserve | | Change Station

Elev 1424 ft 36.45 °N, 121.80 °W | Updated 16 minutes ago

Partly Cloudy
Partly Cloudy
38.8 °F
Feels Like 39 °F
N
0.6
Wind Variable Wind from SE

Today
High -- | Low -- °F
--% Chance of Precip.
Yesterday
High -- | Low -- °F
Precip. -- in
Pressure 30.28 in
Visibility 10.0 miles
Clouds Clear
Windchill 39 °F
Dew Point 32 °F
Humidity 82%
Rainfall Not available.
Snow Depth Not available.
6:43 AM 5:57 PM
Waning Crescent, 3% visible
METAR KMRY 250254Z 19004KT 10SM CLR 08/03 A3024 RMK AO2 SLP253 T00830028 53001
Pressure 30.28 in
Visibility 10.0 miles
Clouds Clear
Windchill 39 °F
Dew Point 32 °F
Humidity 82%
Rainfall Not available.
Snow Depth Not available.
6:43 AM 5:57 PM
Waning Crescent, 3% visible
METAR KMRY 250254Z 19004KT 10SM CLR 08/03 A3024 RMK AO2 SLP253 T00830028 53001

Get Your Daily Forecast Email!

Thanks for signing up!

Be on the lookout for a verification email in your inbox.

You'll start receiving the daily forecast at 8 AM.

×

10-Day Weather Forecast

Almanac

Astronomy

Feb. 24, 2017 Rise Set
Actual Time
Civil Twilight
Nautical Twilight
Astronomical Twilight
Moon
Length of Visible Light
Length of Day
Tomorrow will be .
, % of the Moon is Illuminated

Today's Extremes

State Highs State Lows

Community

WunderPhotos

Upload Photos

1,962,540 photos uploaded!

WunderBlog® & News

Nearby

Air Quality

  Air Quality AQ Index Pollutant
Not available.

Snow Depth

Station Depth Elevation

Earthquake Activity

City Distance Mag. Time & Date
Minimum magnitude displayed is 2.5.

Coastal Water Temperatures

Place Temperature

Stations

Nearby Weather Stations

Station Location Temp. Windchill Dew Point Humidity Wind Precip. Elev Updated Type
                   

Watches & Warnings

There are currently no watches in effect.